sensor_id;sensor_type;location;lat;lon;timestamp;temperature;humidity
24035;DHT22;12242;50.952;4.678;2023-04-15T00:02:16;10.20;99.90
24035;DHT22;12242;50.952;4.678;2023-04-15T00:04:46;10.20;99.90
24035;DHT22;12242;50.952;4.678;2023-04-15T00:07:14;10.30;99.90
24035;DHT22;12242;50.952;4.678;2023-04-15T00:09:42;10.20;99.90
24035;DHT22;12242;50.952;4.678;2023-04-15T00:12:11;10.20;99.90
24035;DHT22;12242;50.952;4.678;2023-04-15T00:14:38;10.30;99.90
24035;DHT22;12242;50.952;4.678;2023-04-15T00:17:06;10.30;99.90
24035;DHT22;12242;50.952;4.678;2023-04-15T00:19:34;10.30;99.90
24035;DHT22;12242;50.952;4.678;2023-04-15T00:22:02;10.30;99.90
24035;DHT22;12242;50.952;4.678;2023-04-15T00:24:29;10.30;99.90
24035;DHT22;12242;50.952;4.678;2023-04-15T00:26:58;10.30;99.90
24035;DHT22;12242;50.952;4.678;2023-04-15T00:29:26;10.20;99.90
24035;DHT22;12242;50.952;4.678;2023-04-15T00:31:53;10.20;99.90
24035;DHT22;12242;50.952;4.678;2023-04-15T00:34:22;10.30;99.90
24035;DHT22;12242;50.952;4.678;2023-04-15T00:36:49;10.20;99.90
24035;DHT22;12242;50.952;4.678;2023-04-15T00:39:18;10.30;99.90
24035;DHT22;12242;50.952;4.678;2023-04-15T00:41:46;10.30;99.90
24035;DHT22;12242;50.952;4.678;2023-04-15T00:44:14;10.20;99.90
24035;DHT22;12242;50.952;4.678;2023-04-15T00:46:42;10.20;99.90
24035;DHT22;12242;50.952;4.678;2023-04-15T00:49:11;10.20;99.90
24035;DHT22;12242;50.952;4.678;2023-04-15T00:51:39;10.20;99.90
24035;DHT22;12242;50.952;4.678;2023-04-15T00:54:06;10.30;99.90
24035;DHT22;12242;50.952;4.678;2023-04-15T00:56:35;10.20;99.90
24035;DHT22;12242;50.952;4.678;2023-04-15T00:59:05;10.30;99.90
24035;DHT22;12242;50.952;4.678;2023-04-15T01:01:34;10.20;99.90
24035;DHT22;12242;50.952;4.678;2023-04-15T01:04:03;10.30;99.90
24035;DHT22;12242;50.952;4.678;2023-04-15T01:06:32;10.40;99.90
24035;DHT22;12242;50.952;4.678;2023-04-15T01:08:59;10.50;99.90
24035;DHT22;12242;50.952;4.678;2023-04-15T01:11:28;10.60;99.90
24035;DHT22;12242;50.952;4.678;2023-04-15T01:13:58;10.60;99.90
24035;DHT22;12242;50.952;4.678;2023-04-15T01:16:25;10.60;99.90
24035;DHT22;12242;50.952;4.678;2023-04-15T01:18:54;10.60;99.90
24035;DHT22;12242;50.952;4.678;2023-04-15T01:21:23;10.40;99.90
24035;DHT22;12242;50.952;4.678;2023-04-15T01:23:52;10.50;99.90
24035;DHT22;12242;50.952;4.678;2023-04-15T01:26:20;10.50;99.90
24035;DHT22;12242;50.952;4.678;2023-04-15T01:28:49;10.20;99.90
24035;DHT22;12242;50.952;4.678;2023-04-15T01:31:17;10.10;99.90
24035;DHT22;12242;50.952;4.678;2023-04-15T01:33:45;9.90;99.90
24035;DHT22;12242;50.952;4.678;2023-04-15T01:36:13;9.90;99.90
24035;DHT22;12242;50.952;4.678;2023-04-15T01:38:41;10.00;99.90
24035;DHT22;12242;50.952;4.678;2023-04-15T01:41:08;9.90;99.90
24035;DHT22;12242;50.952;4.678;2023-04-15T01:43:36;9.80;99.90
24035;DHT22;12242;50.952;4.678;2023-04-15T01:46:04;9.90;99.90
24035;DHT22;12242;50.952;4.678;2023-04-15T01:48:32;10.00;99.90
24035;DHT22;12242;50.952;4.678;2023-04-15T01:51:00;9.90;99.90
24035;DHT22;12242;50.952;4.678;2023-04-15T01:53:27;9.90;99.90
24035;DHT22;12242;50.952;4.678;2023-04-15T01:55:55;10.10;99.90
24035;DHT22;12242;50.952;4.678;2023-04-15T01:58:23;10.20;99.90
24035;DHT22;12242;50.952;4.678;2023-04-15T02:00:50;10.40;99.90
24035;DHT22;12242;50.952;4.678;2023-04-15T02:03:18;10.30;99.90
24035;DHT22;12242;50.952;4.678;2023-04-15T02:05:46;10.30;99.90
24035;DHT22;12242;50.952;4.678;2023-04-15T02:08:13;10.20;99.90
24035;DHT22;12242;50.952;4.678;2023-04-15T02:10:41;9.60;99.90
24035;DHT22;12242;50.952;4.678;2023-04-15T02:13:08;9.50;99.90
24035;DHT22;12242;50.952;4.678;2023-04-15T02:15:37;9.30;99.90
24035;DHT22;12242;50.952;4.678;2023-04-15T02:18:04;9.30;99.90
24035;DHT22;12242;50.952;4.678;2023-04-15T02:20:31;9.40;99.90
24035;DHT22;12242;50.952;4.678;2023-04-15T02:22:59;9.50;99.90
24035;DHT22;12242;50.952;4.678;2023-04-15T02:25:27;9.10;99.90
24035;DHT22;12242;50.952;4.678;2023-04-15T02:27:56;8.90;99.90
24035;DHT22;12242;50.952;4.678;2023-04-15T02:30:24;8.90;99.90
24035;DHT22;12242;50.952;4.678;2023-04-15T02:32:52;9.00;99.90
24035;DHT22;12242;50.952;4.678;2023-04-15T02:35:19;8.90;99.90
24035;DHT22;12242;50.952;4.678;2023-04-15T02:37:47;8.90;99.90
24035;DHT22;12242;50.952;4.678;2023-04-15T02:40:15;8.80;99.90
24035;DHT22;12242;50.952;4.678;2023-04-15T02:42:42;9.00;99.90
24035;DHT22;12242;50.952;4.678;2023-04-15T02:45:11;9.30;99.90
24035;DHT22;12242;50.952;4.678;2023-04-15T02:47:39;9.70;99.90
24035;DHT22;12242;50.952;4.678;2023-04-15T02:50:08;9.90;99.90
24035;DHT22;12242;50.952;4.678;2023-04-15T02:52:41;10.10;99.90
24035;DHT22;12242;50.952;4.678;2023-04-15T02:55:08;10.20;99.90
24035;DHT22;12242;50.952;4.678;2023-04-15T02:57:36;10.30;99.90
24035;DHT22;12242;50.952;4.678;2023-04-15T03:00:06;10.20;99.90
24035;DHT22;12242;50.952;4.678;2023-04-15T03:02:37;10.20;99.90
24035;DHT22;12242;50.952;4.678;2023-04-15T03:05:05;10.10;99.90
24035;DHT22;12242;50.952;4.678;2023-04-15T03:07:33;9.90;99.90
24035;DHT22;12242;50.952;4.678;2023-04-15T03:10:00;9.90;99.90
24035;DHT22;12242;50.952;4.678;2023-04-15T03:12:28;9.80;99.90
24035;DHT22;12242;50.952;4.678;2023-04-15T03:14:56;10.00;99.90
24035;DHT22;12242;50.952;4.678;2023-04-15T03:17:24;9.60;99.90
24035;DHT22;12242;50.952;4.678;2023-04-15T03:19:51;9.60;99.90
24035;DHT22;12242;50.952;4.678;2023-04-15T03:22:19;9.80;99.90
24035;DHT22;12242;50.952;4.678;2023-04-15T03:24:46;9.90;99.90
24035;DHT22;12242;50.952;4.678;2023-04-15T03:27:14;10.00;99.90
24035;DHT22;12242;50.952;4.678;2023-04-15T03:29:41;9.90;99.90
24035;DHT22;12242;50.952;4.678;2023-04-15T03:32:09;9.70;99.90
24035;DHT22;12242;50.952;4.678;2023-04-15T03:34:36;9.40;99.90
24035;DHT22;12242;50.952;4.678;2023-04-15T03:37:04;9.20;99.90
24035;DHT22;12242;50.952;4.678;2023-04-15T03:39:32;9.30;99.90
24035;DHT22;12242;50.952;4.678;2023-04-15T03:41:59;9.40;99.90
24035;DHT22;12242;50.952;4.678;2023-04-15T03:44:28;9.40;99.90
24035;DHT22;12242;50.952;4.678;2023-04-15T03:46:55;9.50;99.90
24035;DHT22;12242;50.952;4.678;2023-04-15T03:49:23;9.70;99.90
24035;DHT22;12242;50.952;4.678;2023-04-15T03:51:50;9.70;99.90
24035;DHT22;12242;50.952;4.678;2023-04-15T03:54:18;9.90;99.90
24035;DHT22;12242;50.952;4.678;2023-04-15T03:56:46;9.80;99.90
24035;DHT22;12242;50.952;4.678;2023-04-15T03:59:13;9.90;99.90
24035;DHT22;12242;50.952;4.678;2023-04-15T04:01:40;9.70;99.90
24035;DHT22;12242;50.952;4.678;2023-04-15T04:04:08;9.80;99.90
24035;DHT22;12242;50.952;4.678;2023-04-15T04:06:36;9.80;99.90
24035;DHT22;12242;50.952;4.678;2023-04-15T04:09:03;9.80;99.90
24035;DHT22;12242;50.952;4.678;2023-04-15T04:11:31;9.80;99.90
24035;DHT22;12242;50.952;4.678;2023-04-15T04:13:59;9.90;99.90
24035;DHT22;12242;50.952;4.678;2023-04-15T04:16:26;10.00;99.90
24035;DHT22;12242;50.952;4.678;2023-04-15T04:18:54;9.90;99.90
24035;DHT22;12242;50.952;4.678;2023-04-15T04:21:22;9.90;99.90
24035;DHT22;12242;50.952;4.678;2023-04-15T04:23:49;9.80;99.90
24035;DHT22;12242;50.952;4.678;2023-04-15T04:26:17;9.60;99.90
24035;DHT22;12242;50.952;4.678;2023-04-15T04:28:45;9.50;99.90
24035;DHT22;12242;50.952;4.678;2023-04-15T04:31:13;9.50;99.90
24035;DHT22;12242;50.952;4.678;2023-04-15T04:33:40;9.50;99.90
24035;DHT22;12242;50.952;4.678;2023-04-15T04:36:08;9.40;99.90
24035;DHT22;12242;50.952;4.678;2023-04-15T04:38:35;9.20;99.90
24035;DHT22;12242;50.952;4.678;2023-04-15T04:41:03;9.30;99.90
24035;DHT22;12242;50.952;4.678;2023-04-15T04:43:30;9.30;99.90
24035;DHT22;12242;50.952;4.678;2023-04-15T04:45:58;9.30;99.90
24035;DHT22;12242;50.952;4.678;2023-04-15T04:48:25;9.30;99.90
24035;DHT22;12242;50.952;4.678;2023-04-15T04:50:53;9.30;99.90
24035;DHT22;12242;50.952;4.678;2023-04-15T04:53:21;9.20;99.90
24035;DHT22;12242;50.952;4.678;2023-04-15T04:55:48;9.30;99.90
24035;DHT22;12242;50.952;4.678;2023-04-15T04:58:16;9.40;99.90
24035;DHT22;12242;50.952;4.678;2023-04-15T05:00:43;9.50;99.90
24035;DHT22;12242;50.952;4.678;2023-04-15T05:03:11;9.50;99.90
24035;DHT22;12242;50.952;4.678;2023-04-15T05:05:38;9.70;99.90
24035;DHT22;12242;50.952;4.678;2023-04-15T05:08:07;9.70;99.90
24035;DHT22;12242;50.952;4.678;2023-04-15T05:10:35;9.80;99.90
24035;DHT22;12242;50.952;4.678;2023-04-15T05:13:02;9.80;99.90
24035;DHT22;12242;50.952;4.678;2023-04-15T05:15:30;9.80;99.90
24035;DHT22;12242;50.952;4.678;2023-04-15T05:17:58;9.70;99.90
24035;DHT22;12242;50.952;4.678;2023-04-15T05:20:26;9.70;99.90
24035;DHT22;12242;50.952;4.678;2023-04-15T05:22:53;9.70;99.90
24035;DHT22;12242;50.952;4.678;2023-04-15T05:25:20;9.80;99.90
24035;DHT22;12242;50.952;4.678;2023-04-15T05:27:48;9.90;99.90
24035;DHT22;12242;50.952;4.678;2023-04-15T05:30:16;9.90;99.90
24035;DHT22;12242;50.952;4.678;2023-04-15T05:32:43;10.00;99.90
24035;DHT22;12242;50.952;4.678;2023-04-15T05:35:11;10.10;99.90
24035;DHT22;12242;50.952;4.678;2023-04-15T05:37:39;10.10;99.90
24035;DHT22;12242;50.952;4.678;2023-04-15T05:40:07;10.10;99.90
24035;DHT22;12242;50.952;4.678;2023-04-15T05:42:36;9.40;99.90
24035;DHT22;12242;50.952;4.678;2023-04-15T05:45:04;9.00;99.90
24035;DHT22;12242;50.952;4.678;2023-04-15T05:47:35;9.40;99.90
24035;DHT22;12242;50.952;4.678;2023-04-15T05:50:06;9.40;99.90
24035;DHT22;12242;50.952;4.678;2023-04-15T05:52:34;9.50;99.90
24035;DHT22;12242;50.952;4.678;2023-04-15T05:55:02;9.80;99.90
24035;DHT22;12242;50.952;4.678;2023-04-15T05:57:30;9.90;99.90
24035;DHT22;12242;50.952;4.678;2023-04-15T05:59:57;10.00;99.90
24035;DHT22;12242;50.952;4.678;2023-04-15T06:02:25;10.10;99.90
24035;DHT22;12242;50.952;4.678;2023-04-15T06:04:52;10.30;99.90
24035;DHT22;12242;50.952;4.678;2023-04-15T06:07:20;10.30;99.90
24035;DHT22;12242;50.952;4.678;2023-04-15T06:09:48;10.30;99.90
24035;DHT22;12242;50.952;4.678;2023-04-15T06:12:15;10.30;99.90
24035;DHT22;12242;50.952;4.678;2023-04-15T06:14:43;10.30;99.90
24035;DHT22;12242;50.952;4.678;2023-04-15T06:17:10;10.50;99.90
24035;DHT22;12242;50.952;4.678;2023-04-15T06:19:41;10.80;99.90
24035;DHT22;12242;50.952;4.678;2023-04-15T06:22:08;10.90;99.90
24035;DHT22;12242;50.952;4.678;2023-04-15T06:24:36;11.10;99.90
24035;DHT22;12242;50.952;4.678;2023-04-15T06:27:03;11.20;99.90
24035;DHT22;12242;50.952;4.678;2023-04-15T06:29:31;11.30;99.90
24035;DHT22;12242;50.952;4.678;2023-04-15T06:31:58;11.50;99.90
24035;DHT22;12242;50.952;4.678;2023-04-15T06:34:26;11.70;99.90
24035;DHT22;12242;50.952;4.678;2023-04-15T06:36:54;11.80;99.90
24035;DHT22;12242;50.952;4.678;2023-04-15T06:39:22;12.00;99.90
24035;DHT22;12242;50.952;4.678;2023-04-15T06:41:49;12.30;99.90
24035;DHT22;12242;50.952;4.678;2023-04-15T06:44:17;12.40;99.90
24035;DHT22;12242;50.952;4.678;2023-04-15T06:46:45;12.40;99.90
24035;DHT22;12242;50.952;4.678;2023-04-15T06:49:12;12.80;99.90
24035;DHT22;12242;50.952;4.678;2023-04-15T06:51:42;12.90;99.90
24035;DHT22;12242;50.952;4.678;2023-04-15T06:54:11;13.20;99.90
24035;DHT22;12242;50.952;4.678;2023-04-15T06:56:38;13.70;99.90
24035;DHT22;12242;50.952;4.678;2023-04-15T06:59:06;14.10;99.90
24035;DHT22;12242;50.952;4.678;2023-04-15T07:01:35;14.40;99.90
24035;DHT22;12242;50.952;4.678;2023-04-15T07:04:02;15.50;99.90
24035;DHT22;12242;50.952;4.678;2023-04-15T07:06:30;17.10;99.90
24035;DHT22;12242;50.952;4.678;2023-04-15T07:08:58;17.50;99.90
24035;DHT22;12242;50.952;4.678;2023-04-15T07:11:26;17.50;99.80
24035;DHT22;12242;50.952;4.678;2023-04-15T07:13:54;16.80;99.90
24035;DHT22;12242;50.952;4.678;2023-04-15T07:16:22;17.10;99.90
24035;DHT22;12242;50.952;4.678;2023-04-15T07:18:49;17.30;99.90
24035;DHT22;12242;50.952;4.678;2023-04-15T07:21:17;18.50;98.30
24035;DHT22;12242;50.952;4.678;2023-04-15T07:23:45;20.50;94.40
24035;DHT22;12242;50.952;4.678;2023-04-15T07:26:12;21.20;91.60
24035;DHT22;12242;50.952;4.678;2023-04-15T07:28:40;22.40;89.20
24035;DHT22;12242;50.952;4.678;2023-04-15T07:31:08;22.50;84.30
24035;DHT22;12242;50.952;4.678;2023-04-15T07:33:35;21.40;85.40
24035;DHT22;12242;50.952;4.678;2023-04-15T07:36:03;21.00;85.80
24035;DHT22;12242;50.952;4.678;2023-04-15T07:38:31;21.60;86.00
24035;DHT22;12242;50.952;4.678;2023-04-15T07:40:58;21.70;83.50
24035;DHT22;12242;50.952;4.678;2023-04-15T07:43:26;20.60;82.90
24035;DHT22;12242;50.952;4.678;2023-04-15T07:45:54;20.80;85.00
24035;DHT22;12242;50.952;4.678;2023-04-15T07:48:22;20.80;85.40
24035;DHT22;12242;50.952;4.678;2023-04-15T07:50:49;21.20;82.40
24035;DHT22;12242;50.952;4.678;2023-04-15T07:53:17;21.80;80.60
24035;DHT22;12242;50.952;4.678;2023-04-15T07:55:44;21.90;77.80
24035;DHT22;12242;50.952;4.678;2023-04-15T07:58:12;21.50;77.90
24035;DHT22;12242;50.952;4.678;2023-04-15T08:00:40;22.10;77.60
24035;DHT22;12242;50.952;4.678;2023-04-15T08:03:07;23.20;74.80
24035;DHT22;12242;50.952;4.678;2023-04-15T08:05:35;24.30;73.40
24035;DHT22;12242;50.952;4.678;2023-04-15T08:08:03;24.70;68.90
24035;DHT22;12242;50.952;4.678;2023-04-15T08:10:31;24.30;69.00
24035;DHT22;12242;50.952;4.678;2023-04-15T08:12:58;24.80;70.30
24035;DHT22;12242;50.952;4.678;2023-04-15T08:15:26;24.80;67.90
24035;DHT22;12242;50.952;4.678;2023-04-15T08:17:54;25.40;65.70
24035;DHT22;12242;50.952;4.678;2023-04-15T08:20:22;24.50;65.40
24035;DHT22;12242;50.952;4.678;2023-04-15T08:22:50;23.40;67.80
24035;DHT22;12242;50.952;4.678;2023-04-15T08:25:18;23.80;65.70
24035;DHT22;12242;50.952;4.678;2023-04-15T08:27:46;23.70;65.90
24035;DHT22;12242;50.952;4.678;2023-04-15T08:30:14;23.80;66.90
24035;DHT22;12242;50.952;4.678;2023-04-15T08:32:44;25.10;67.90
24035;DHT22;12242;50.952;4.678;2023-04-15T08:35:13;23.40;64.80
24035;DHT22;12242;50.952;4.678;2023-04-15T08:37:40;22.80;68.20
24035;DHT22;12242;50.952;4.678;2023-04-15T08:40:10;22.90;66.90
24035;DHT22;12242;50.952;4.678;2023-04-15T08:42:43;23.50;66.40
24035;DHT22;12242;50.952;4.678;2023-04-15T08:45:11;23.40;67.40
24035;DHT22;12242;50.952;4.678;2023-04-15T08:47:39;23.40;66.80
24035;DHT22;12242;50.952;4.678;2023-04-15T08:50:08;24.20;65.40
24035;DHT22;12242;50.952;4.678;2023-04-15T08:52:37;24.60;64.50
24035;DHT22;12242;50.952;4.678;2023-04-15T08:55:04;24.30;68.20
24035;DHT22;12242;50.952;4.678;2023-04-15T08:57:34;24.70;64.70
24035;DHT22;12242;50.952;4.678;2023-04-15T09:00:04;24.50;66.10
24035;DHT22;12242;50.952;4.678;2023-04-15T09:02:32;24.20;64.20
24035;DHT22;12242;50.952;4.678;2023-04-15T09:05:01;24.80;65.10
24035;DHT22;12242;50.952;4.678;2023-04-15T09:07:33;24.00;65.60
24035;DHT22;12242;50.952;4.678;2023-04-15T09:10:03;23.20;67.40
24035;DHT22;12242;50.952;4.678;2023-04-15T09:12:36;22.50;69.30
24035;DHT22;12242;50.952;4.678;2023-04-15T09:15:04;22.70;68.80
24035;DHT22;12242;50.952;4.678;2023-04-15T09:17:32;23.10;69.50
24035;DHT22;12242;50.952;4.678;2023-04-15T09:20:07;22.30;69.10
24035;DHT22;12242;50.952;4.678;2023-04-15T09:22:36;23.20;69.30
24035;DHT22;12242;50.952;4.678;2023-04-15T09:25:24;24.40;66.60
24035;DHT22;12242;50.952;4.678;2023-04-15T09:27:55;25.90;63.40
24035;DHT22;12242;50.952;4.678;2023-04-15T09:30:24;24.00;65.50
24035;DHT22;12242;50.952;4.678;2023-04-15T09:32:53;23.20;67.70
24035;DHT22;12242;50.952;4.678;2023-04-15T09:35:21;22.80;68.20
24035;DHT22;12242;50.952;4.678;2023-04-15T09:37:50;21.90;72.10
24035;DHT22;12242;50.952;4.678;2023-04-15T09:40:38;21.30;70.70
24035;DHT22;12242;50.952;4.678;2023-04-15T09:43:08;20.10;72.80
24035;DHT22;12242;50.952;4.678;2023-04-15T09:45:36;20.40;71.90
24035;DHT22;12242;50.952;4.678;2023-04-15T09:48:23;21.30;70.70
24035;DHT22;12242;50.952;4.678;2023-04-15T09:50:57;20.90;71.20
24035;DHT22;12242;50.952;4.678;2023-04-15T09:53:25;21.60;70.20
24035;DHT22;12242;50.952;4.678;2023-04-15T09:55:54;22.10;66.90
24035;DHT22;12242;50.952;4.678;2023-04-15T09:58:31;22.00;66.40
24035;DHT22;12242;50.952;4.678;2023-04-15T10:01:01;22.90;66.10
24035;DHT22;12242;50.952;4.678;2023-04-15T10:03:32;23.20;66.50
24035;DHT22;12242;50.952;4.678;2023-04-15T10:06:00;23.10;65.20
24035;DHT22;12242;50.952;4.678;2023-04-15T10:08:31;23.40;65.70
24035;DHT22;12242;50.952;4.678;2023-04-15T10:11:03;23.00;64.10
24035;DHT22;12242;50.952;4.678;2023-04-15T10:13:31;23.30;65.20
24035;DHT22;12242;50.952;4.678;2023-04-15T10:16:12;23.50;61.50
24035;DHT22;12242;50.952;4.678;2023-04-15T10:18:43;23.40;62.40
24035;DHT22;12242;50.952;4.678;2023-04-15T10:21:13;24.00;62.70
24035;DHT22;12242;50.952;4.678;2023-04-15T10:23:45;23.30;61.00
24035;DHT22;12242;50.952;4.678;2023-04-15T10:26:14;23.30;61.20
24035;DHT22;12242;50.952;4.678;2023-04-15T10:28:44;23.20;59.10
24035;DHT22;12242;50.952;4.678;2023-04-15T10:31:13;23.80;61.60
24035;DHT22;12242;50.952;4.678;2023-04-15T10:33:42;23.80;58.20
24035;DHT22;12242;50.952;4.678;2023-04-15T10:36:10;24.00;58.80
24035;DHT22;12242;50.952;4.678;2023-04-15T10:38:43;24.20;58.50
24035;DHT22;12242;50.952;4.678;2023-04-15T10:41:12;23.00;60.30
24035;DHT22;12242;50.952;4.678;2023-04-15T10:43:51;22.00;65.00
24035;DHT22;12242;50.952;4.678;2023-04-15T10:48:53;21.50;64.30
24035;DHT22;12242;50.952;4.678;2023-04-15T10:51:29;21.80;62.30
24035;DHT22;12242;50.952;4.678;2023-04-15T10:53:59;22.00;59.90
24035;DHT22;12242;50.952;4.678;2023-04-15T10:56:28;22.90;55.00
24035;DHT22;12242;50.952;4.678;2023-04-15T10:58:58;23.20;56.10
24035;DHT22;12242;50.952;4.678;2023-04-15T11:01:53;23.60;53.80
24035;DHT22;12242;50.952;4.678;2023-04-15T11:04:56;23.40;54.10
24035;DHT22;12242;50.952;4.678;2023-04-15T11:12:45;22.90;56.80
24035;DHT22;12242;50.952;4.678;2023-04-15T11:20:26;23.00;58.80
24035;DHT22;12242;50.952;4.678;2023-04-15T11:22:55;23.00;57.00
24035;DHT22;12242;50.952;4.678;2023-04-15T11:25:42;22.50;56.70
24035;DHT22;12242;50.952;4.678;2023-04-15T11:28:11;21.30;59.10
24035;DHT22;12242;50.952;4.678;2023-04-15T11:30:39;21.40;60.60
24035;DHT22;12242;50.952;4.678;2023-04-15T11:33:09;22.00;61.30
24035;DHT22;12242;50.952;4.678;2023-04-15T11:35:40;22.60;60.70
24035;DHT22;12242;50.952;4.678;2023-04-15T11:38:09;21.90;60.10
24035;DHT22;12242;50.952;4.678;2023-04-15T11:40:42;20.90;55.90
24035;DHT22;12242;50.952;4.678;2023-04-15T11:43:18;20.90;57.10
24035;DHT22;12242;50.952;4.678;2023-04-15T11:45:54;21.40;57.70
24035;DHT22;12242;50.952;4.678;2023-04-15T11:48:34;21.60;57.10
24035;DHT22;12242;50.952;4.678;2023-04-15T11:51:06;22.30;56.40
24035;DHT22;12242;50.952;4.678;2023-04-15T11:56:09;20.80;54.00
24035;DHT22;12242;50.952;4.678;2023-04-15T11:58:37;20.20;55.60
24035;DHT22;12242;50.952;4.678;2023-04-15T12:01:06;19.20;58.50
24035;DHT22;12242;50.952;4.678;2023-04-15T12:03:40;18.60;60.90
24035;DHT22;12242;50.952;4.678;2023-04-15T12:06:18;18.10;61.30
24035;DHT22;12242;50.952;4.678;2023-04-15T12:11:59;17.60;64.70
24035;DHT22;12242;50.952;4.678;2023-04-15T12:14:28;17.30;66.60
24035;DHT22;12242;50.952;4.678;2023-04-15T12:17:06;17.50;64.80
24035;DHT22;12242;50.952;4.678;2023-04-15T12:19:38;17.50;65.30
24035;DHT22;12242;50.952;4.678;2023-04-15T12:22:14;17.50;59.60
24035;DHT22;12242;50.952;4.678;2023-04-15T12:24:43;17.40;60.50
24035;DHT22;12242;50.952;4.678;2023-04-15T12:27:15;17.20;62.10
24035;DHT22;12242;50.952;4.678;2023-04-15T12:29:43;17.20;60.60
24035;DHT22;12242;50.952;4.678;2023-04-15T12:32:15;17.20;60.60
24035;DHT22;12242;50.952;4.678;2023-04-15T12:34:51;17.20;58.60
24035;DHT22;12242;50.952;4.678;2023-04-15T12:37:19;17.30;61.40
24035;DHT22;12242;50.952;4.678;2023-04-15T12:39:48;17.10;62.00
24035;DHT22;12242;50.952;4.678;2023-04-15T12:42:16;17.00;65.20
24035;DHT22;12242;50.952;4.678;2023-04-15T12:44:45;17.20;60.80
24035;DHT22;12242;50.952;4.678;2023-04-15T12:47:13;17.00;62.20
24035;DHT22;12242;50.952;4.678;2023-04-15T12:49:41;16.90;64.00
24035;DHT22;12242;50.952;4.678;2023-04-15T12:52:08;17.00;67.20
24035;DHT22;12242;50.952;4.678;2023-04-15T12:54:36;17.20;69.60
24035;DHT22;12242;50.952;4.678;2023-04-15T12:57:03;17.30;66.60
24035;DHT22;12242;50.952;4.678;2023-04-15T12:59:34;17.20;62.70
24035;DHT22;12242;50.952;4.678;2023-04-15T13:02:03;17.20;63.30
24035;DHT22;12242;50.952;4.678;2023-04-15T13:04:30;17.00;65.00
24035;DHT22;12242;50.952;4.678;2023-04-15T13:07:00;16.60;64.50
24035;DHT22;12242;50.952;4.678;2023-04-15T13:09:27;16.50;66.80
24035;DHT22;12242;50.952;4.678;2023-04-15T13:11:55;16.60;67.10
24035;DHT22;12242;50.952;4.678;2023-04-15T13:14:23;16.60;65.60
24035;DHT22;12242;50.952;4.678;2023-04-15T13:16:51;16.80;65.80
24035;DHT22;12242;50.952;4.678;2023-04-15T13:19:19;16.90;66.10
24035;DHT22;12242;50.952;4.678;2023-04-15T13:21:47;16.90;69.30
24035;DHT22;12242;50.952;4.678;2023-04-15T13:24:14;16.80;70.00
24035;DHT22;12242;50.952;4.678;2023-04-15T13:26:42;16.80;70.00
24035;DHT22;12242;50.952;4.678;2023-04-15T13:29:10;16.90;68.60
24035;DHT22;12242;50.952;4.678;2023-04-15T13:31:38;16.80;70.80
24035;DHT22;12242;50.952;4.678;2023-04-15T13:34:06;16.70;69.80
24035;DHT22;12242;50.952;4.678;2023-04-15T13:36:34;16.80;70.00
24035;DHT22;12242;50.952;4.678;2023-04-15T13:39:01;16.80;72.40
24035;DHT22;12242;50.952;4.678;2023-04-15T13:41:29;16.90;73.40
24035;DHT22;12242;50.952;4.678;2023-04-15T13:43:57;16.80;73.30
24035;DHT22;12242;50.952;4.678;2023-04-15T13:46:25;17.00;76.60
24035;DHT22;12242;50.952;4.678;2023-04-15T13:48:52;17.00;73.60
24035;DHT22;12242;50.952;4.678;2023-04-15T13:51:20;17.10;75.20
24035;DHT22;12242;50.952;4.678;2023-04-15T13:53:48;17.20;73.30
24035;DHT22;12242;50.952;4.678;2023-04-15T13:56:15;17.00;72.60
24035;DHT22;12242;50.952;4.678;2023-04-15T13:58:43;17.00;74.60
24035;DHT22;12242;50.952;4.678;2023-04-15T14:01:11;17.10;73.80
24035;DHT22;12242;50.952;4.678;2023-04-15T14:03:38;17.10;70.50
24035;DHT22;12242;50.952;4.678;2023-04-15T14:06:06;16.90;73.10
24035;DHT22;12242;50.952;4.678;2023-04-15T14:08:34;16.70;72.20
24035;DHT22;12242;50.952;4.678;2023-04-15T14:11:01;16.70;71.00
24035;DHT22;12242;50.952;4.678;2023-04-15T14:13:29;16.60;74.70
24035;DHT22;12242;50.952;4.678;2023-04-15T14:15:58;16.50;73.70
24035;DHT22;12242;50.952;4.678;2023-04-15T14:18:25;16.40;75.90
24035;DHT22;12242;50.952;4.678;2023-04-15T14:20:53;16.50;78.30
24035;DHT22;12242;50.952;4.678;2023-04-15T14:23:22;16.60;80.10
24035;DHT22;12242;50.952;4.678;2023-04-15T14:25:49;16.40;76.70
24035;DHT22;12242;50.952;4.678;2023-04-15T14:28:18;16.40;75.70
24035;DHT22;12242;50.952;4.678;2023-04-15T14:30:45;16.20;77.40
24035;DHT22;12242;50.952;4.678;2023-04-15T14:33:13;16.20;81.20
24035;DHT22;12242;50.952;4.678;2023-04-15T14:35:40;16.20;77.60
24035;DHT22;12242;50.952;4.678;2023-04-15T14:38:08;16.10;74.50
24035;DHT22;12242;50.952;4.678;2023-04-15T14:40:37;16.10;76.70
24035;DHT22;12242;50.952;4.678;2023-04-15T14:43:05;16.10;77.60
24035;DHT22;12242;50.952;4.678;2023-04-15T14:45:33;16.10;75.60
24035;DHT22;12242;50.952;4.678;2023-04-15T14:48:01;16.10;78.00
24035;DHT22;12242;50.952;4.678;2023-04-15T14:50:29;16.20;78.80
24035;DHT22;12242;50.952;4.678;2023-04-15T14:52:57;16.30;81.20
24035;DHT22;12242;50.952;4.678;2023-04-15T14:55:25;16.10;81.00
24035;DHT22;12242;50.952;4.678;2023-04-15T14:57:52;15.90;78.00
24035;DHT22;12242;50.952;4.678;2023-04-15T15:00:20;15.80;79.80
24035;DHT22;12242;50.952;4.678;2023-04-15T15:02:47;15.70;80.50
24035;DHT22;12242;50.952;4.678;2023-04-15T15:05:15;15.70;76.60
24035;DHT22;12242;50.952;4.678;2023-04-15T15:07:43;15.70;75.10
24035;DHT22;12242;50.952;4.678;2023-04-15T15:10:10;15.80;76.90
24035;DHT22;12242;50.952;4.678;2023-04-15T15:12:38;15.80;79.00
24035;DHT22;12242;50.952;4.678;2023-04-15T15:15:06;15.90;80.80
24035;DHT22;12242;50.952;4.678;2023-04-15T15:17:53;16.00;80.50
24035;DHT22;12242;50.952;4.678;2023-04-15T15:20:22;16.00;78.00
24035;DHT22;12242;50.952;4.678;2023-04-15T15:22:50;15.80;76.90
24035;DHT22;12242;50.952;4.678;2023-04-15T15:25:17;15.60;80.50
24035;DHT22;12242;50.952;4.678;2023-04-15T15:27:45;15.90;81.40
24035;DHT22;12242;50.952;4.678;2023-04-15T15:30:13;16.00;81.10
24035;DHT22;12242;50.952;4.678;2023-04-15T15:32:41;15.90;81.40
24035;DHT22;12242;50.952;4.678;2023-04-15T15:35:09;15.90;81.60
24035;DHT22;12242;50.952;4.678;2023-04-15T15:37:37;15.90;82.70
24035;DHT22;12242;50.952;4.678;2023-04-15T15:40:05;15.80;82.10
24035;DHT22;12242;50.952;4.678;2023-04-15T15:42:33;15.80;82.40
24035;DHT22;12242;50.952;4.678;2023-04-15T15:45:02;15.70;83.10
24035;DHT22;12242;50.952;4.678;2023-04-15T15:47:31;15.80;84.70
24035;DHT22;12242;50.952;4.678;2023-04-15T15:49:59;15.80;83.10
24035;DHT22;12242;50.952;4.678;2023-04-15T15:52:29;15.90;84.00
24035;DHT22;12242;50.952;4.678;2023-04-15T15:54:57;15.80;82.30
24035;DHT22;12242;50.952;4.678;2023-04-15T15:57:24;15.70;81.30
24035;DHT22;12242;50.952;4.678;2023-04-15T15:59:52;15.70;82.80
24035;DHT22;12242;50.952;4.678;2023-04-15T16:02:37;15.60;83.30
24035;DHT22;12242;50.952;4.678;2023-04-15T16:05:24;15.60;84.10